Time;durP1;ratioP1;P1;durP2;ratioP2;P2;SDS_P1;SDS_P2;PMS_P1;PMS_P2;Temp;Humidity;BMP_temperature;BMP_pressure;BME280_temperature;BME280_humidity;BME280_pressure;Samples;Min_cycle;Max_cycle;Signal;HPM_P1;HPM_P2
2024/02/26 00:00:35;;;;;;;4.20;1.70;;;4.70;99.90;;;;;;5092373;28;20092;-73
2024/02/26 00:03:01;;;;;;;2.50;1.40;;;4.70;99.90;;;;;;5105284;28;20033;-72
2024/02/26 00:05:26;;;;;;;2.92;1.63;;;4.80;99.90;;;;;;5089138;28;20052;-73
2024/02/26 00:07:52;;;;;;;4.13;1.85;;;4.80;99.90;;;;;;5069434;28;20044;-73
2024/02/26 00:10:18;;;;;;;4.05;1.52;;;4.70;99.90;;;;;;5108988;28;20052;-73
2024/02/26 00:12:44;;;;;;;2.28;1.75;;;4.70;99.90;;;;;;5088398;28;20409;-73
2024/02/26 00:15:10;;;;;;;2.15;1.50;;;4.70;99.90;;;;;;5094801;28;20054;-73
2024/02/26 00:17:36;;;;;;;3.72;1.67;;;4.70;99.90;;;;;;5079043;28;20143;-73
2024/02/26 00:20:04;;;;;;;2.67;1.98;;;4.70;99.90;;;;;;5092429;28;20040;-73
2024/02/26 00:22:31;;;;;;;1.83;1.23;;;4.70;99.90;;;;;;5092521;28;20512;-73
2024/02/26 00:24:56;;;;;;;2.40;1.15;;;4.70;99.90;;;;;;5095691;28;20060;-73
2024/02/26 00:27:22;;;;;;;1.85;1.13;;;4.70;99.90;;;;;;5096403;28;20119;-72
2024/02/26 00:29:48;;;;;;;2.85;1.88;;;4.70;99.90;;;;;;5072385;28;20047;-73
2024/02/26 00:32:14;;;;;;;1.98;1.45;;;4.80;99.90;;;;;;5093213;28;20043;-73
2024/02/26 00:34:40;;;;;;;1.88;1.42;;;4.70;99.90;;;;;;5092205;28;20048;-73
2024/02/26 00:37:05;;;;;;;5.05;1.95;;;4.80;99.90;;;;;;5096866;28;20036;-72
2024/02/26 00:39:31;;;;;;;2.78;1.27;;;4.70;99.90;;;;;;5095486;28;20039;-73
2024/02/26 00:41:57;;;;;;;2.08;1.60;;;4.70;99.90;;;;;;5097790;28;20043;-73
2024/02/26 00:44:22;;;;;;;3.10;1.95;;;4.70;99.90;;;;;;5095071;28;20145;-73
2024/02/26 00:46:48;;;;;;;2.50;1.48;;;4.70;99.90;;;;;;5082550;28;20128;-73
2024/02/26 00:49:14;;;;;;;2.83;1.27;;;4.70;99.90;;;;;;5077370;28;20036;-73
2024/02/26 00:51:40;;;;;;;2.65;1.98;;;4.70;99.90;;;;;;5095652;28;20074;-73
2024/02/26 00:54:05;;;;;;;3.45;1.77;;;4.70;99.90;;;;;;5075325;28;20062;-73
2024/02/26 00:56:31;;;;;;;1.63;1.33;;;4.80;99.90;;;;;;5096395;28;20084;-72
2024/02/26 00:58:56;;;;;;;2.85;2.33;;;4.80;99.90;;;;;;5077969;28;20037;-73
2024/02/26 01:01:22;;;;;;;2.88;2.25;;;4.80;99.90;;;;;;5092138;28;20044;-73
2024/02/26 01:03:48;;;;;;;6.75;2.58;;;4.80;99.90;;;;;;5075323;28;20046;-72
2024/02/26 01:06:14;;;;;;;4.80;2.13;;;4.80;99.90;;;;;;5094495;28;20051;-73
2024/02/26 01:08:39;;;;;;;3.90;1.88;;;4.70;99.90;;;;;;5096004;28;20052;-73
2024/02/26 01:11:05;;;;;;;2.40;1.42;;;4.70;99.90;;;;;;5115134;28;20059;-73
2024/02/26 01:13:31;;;;;;;3.80;1.83;;;4.70;99.90;;;;;;5098694;28;20539;-73
2024/02/26 01:15:56;;;;;;;4.32;2.42;;;4.70;99.90;;;;;;5080647;28;20071;-73
2024/02/26 01:18:23;;;;;;;1.88;1.45;;;4.60;99.90;;;;;;5078252;28;20036;-73
2024/02/26 01:20:48;;;;;;;2.60;1.90;;;4.50;99.90;;;;;;5111377;28;20168;-72
2024/02/26 01:23:14;;;;;;;3.08;1.95;;;4.60;99.90;;;;;;5099720;28;20048;-73
2024/02/26 01:25:40;;;;;;;4.07;2.00;;;4.50;99.90;;;;;;5106469;28;20043;-73
2024/02/26 01:28:06;;;;;;;4.10;2.78;;;4.50;99.90;;;;;;5096212;28;20044;-71
2024/02/26 01:30:31;;;;;;;2.80;2.35;;;4.50;99.90;;;;;;5095627;28;20046;-73
2024/02/26 01:32:57;;;;;;;3.58;2.38;;;4.50;99.90;;;;;;5097741;28;20075;-72
2024/02/26 01:35:23;;;;;;;2.83;2.50;;;4.40;99.90;;;;;;5094983;28;20666;-72
2024/02/26 01:37:49;;;;;;;2.67;1.67;;;4.50;99.90;;;;;;5096569;28;20471;-73
2024/02/26 01:40:19;;;;;;;5.03;2.53;;;4.40;99.90;;;;;;5079772;28;20067;-73
2024/02/26 01:42:45;;;;;;;4.25;2.47;;;4.40;99.90;;;;;;5094247;28;20052;-73
2024/02/26 01:45:21;;;;;;;2.28;1.67;;;4.40;99.90;;;;;;5095999;28;20118;-72
2024/02/26 01:47:51;;;;;;;3.53;1.98;;;4.40;99.90;;;;;;5111698;28;20040;-73
2024/02/26 01:50:18;;;;;;;2.72;1.95;;;4.40;99.90;;;;;;5075303;28;20036;-72
2024/02/26 01:52:47;;;;;;;2.67;1.85;;;4.40;99.90;;;;;;5090677;28;20059;-72
2024/02/26 01:55:16;;;;;;;1.88;1.35;;;4.40;99.90;;;;;;5092986;28;20047;-72
2024/02/26 01:57:44;;;;;;;5.13;2.15;;;4.30;99.90;;;;;;5093030;28;20035;-72
2024/02/26 02:00:10;;;;;;;3.95;2.45;;;4.40;99.90;;;;;;5093456;28;20090;-73
2024/02/26 02:02:36;;;;;;;2.80;1.75;;;4.40;99.90;;;;;;5092031;28;20046;-73
2024/02/26 02:05:03;;;;;;;3.55;1.50;;;4.40;99.90;;;;;;5108444;28;20422;-73
2024/02/26 02:07:29;;;;;;;4.18;2.30;;;4.40;99.90;;;;;;5105636;28;20094;-73
2024/02/26 02:09:55;;;;;;;3.55;2.42;;;4.40;99.90;;;;;;5080684;28;20048;-73
2024/02/26 02:12:21;;;;;;;4.53;3.17;;;4.40;99.90;;;;;;5070718;28;20066;-73
2024/02/26 02:14:47;;;;;;;4.43;2.65;;;4.40;99.90;;;;;;5077888;28;20037;-73
2024/02/26 02:17:13;;;;;;;4.97;2.35;;;4.40;99.90;;;;;;5094088;28;20036;-73
2024/02/26 02:19:39;;;;;;;3.90;2.20;;;4.40;99.90;;;;;;5098683;28;20051;-73
2024/02/26 02:22:04;;;;;;;6.30;2.75;;;4.40;99.90;;;;;;5092022;28;20036;-73
2024/02/26 02:24:30;;;;;;;3.83;2.22;;;4.40;99.90;;;;;;5097233;28;20043;-73
2024/02/26 02:26:56;;;;;;;8.25;3.03;;;4.40;99.90;;;;;;5077269;28;20040;-73
2024/02/26 02:29:22;;;;;;;4.57;2.90;;;4.40;99.90;;;;;;5094782;28;20047;-73
2024/02/26 02:31:48;;;;;;;8.35;3.83;;;4.40;99.90;;;;;;5095918;28;20066;-72
2024/02/26 02:34:14;;;;;;;3.42;1.70;;;4.50;99.90;;;;;;5093278;28;20377;-73
2024/02/26 02:36:53;;;;;;;5.43;2.35;;;4.40;99.90;;;;;;5091539;28;20051;-73
2024/02/26 02:39:19;;;;;;;4.53;2.05;;;4.40;99.90;;;;;;5091292;28;20051;-73
2024/02/26 02:41:45;;;;;;;6.55;3.58;;;4.40;99.90;;;;;;5092760;28;20040;-73
2024/02/26 02:44:10;;;;;;;3.10;2.38;;;4.40;99.90;;;;;;5077429;28;20028;-73
2024/02/26 02:46:36;;;;;;;6.07;3.30;;;4.50;99.90;;;;;;5091722;28;20036;-73
2024/02/26 02:49:02;;;;;;;4.20;3.15;;;4.50;99.90;;;;;;5109778;28;20039;-73
2024/02/26 02:51:27;;;;;;;4.53;3.38;;;4.50;99.90;;;;;;5092107;28;20052;-72
2024/02/26 02:53:53;;;;;;;4.90;2.70;;;4.50;99.90;;;;;;5101091;28;20044;-73
2024/02/26 02:56:19;;;;;;;5.78;3.58;;;4.50;99.90;;;;;;5097131;28;20503;-73
2024/02/26 02:58:45;;;;;;;10.40;4.45;;;4.50;99.90;;;;;;5109480;28;20036;-73
2024/02/26 03:01:10;;;;;;;6.25;2.88;;;4.60;99.90;;;;;;5093047;28;20032;-73
2024/02/26 03:03:37;;;;;;;4.40;2.15;;;4.50;99.90;;;;;;5070433;28;20036;-73
2024/02/26 03:06:03;;;;;;;6.95;3.90;;;4.60;99.90;;;;;;5108989;28;20417;-72
2024/02/26 03:08:29;;;;;;;6.90;3.65;;;4.60;99.90;;;;;;5091189;28;20043;-72
2024/02/26 03:10:55;;;;;;;5.00;3.35;;;4.60;99.90;;;;;;5094620;28;20146;-72
2024/02/26 03:13:21;;;;;;;6.18;3.90;;;4.60;99.90;;;;;;5093350;28;20141;-72
2024/02/26 03:15:46;;;;;;;6.10;3.88;;;4.60;99.90;;;;;;5089356;28;20029;-72
2024/02/26 03:18:12;;;;;;;6.07;3.97;;;4.60;99.90;;;;;;5105671;28;20032;-72
2024/02/26 03:20:38;;;;;;;9.70;4.43;;;4.60;99.90;;;;;;5093500;28;20048;-73
2024/02/26 03:23:04;;;;;;;7.18;4.25;;;4.60;99.90;;;;;;5072064;28;20078;-72
2024/02/26 03:25:30;;;;;;;7.80;4.25;;;4.70;99.90;;;;;;5090712;28;20043;-72
2024/02/26 03:27:56;;;;;;;6.03;3.92;;;4.60;99.90;;;;;;5091453;28;20115;-72
2024/02/26 03:30:21;;;;;;;7.72;4.82;;;4.60;99.90;;;;;;5093975;28;20040;-73
2024/02/26 03:32:47;;;;;;;5.00;3.03;;;4.70;99.90;;;;;;5092405;28;20047;-73
2024/02/26 03:35:13;;;;;;;8.77;4.57;;;4.70;99.90;;;;;;5092854;28;20042;-72
2024/02/26 03:37:39;;;;;;;9.48;4.88;;;4.60;99.90;;;;;;5092353;28;20032;-72
2024/02/26 03:40:05;;;;;;;7.30;3.80;;;4.70;99.90;;;;;;5107243;28;20074;-72
2024/02/26 03:42:31;;;;;;;2.17;1.60;;;4.70;99.90;;;;;;5092604;28;21255;-72
2024/02/26 03:44:57;;;;;;;7.10;4.68;;;4.70;99.90;;;;;;5074924;28;20040;-73
2024/02/26 03:47:23;;;;;;;4.65;2.88;;;4.70;99.90;;;;;;5105347;28;20044;-70
2024/02/26 03:49:49;;;;;;;7.18;4.50;;;4.80;99.90;;;;;;5087283;28;22011;-72
2024/02/26 03:52:14;;;;;;;5.50;3.88;;;4.80;99.90;;;;;;5092563;28;20052;-73
2024/02/26 03:54:40;;;;;;;5.20;3.55;;;4.80;99.90;;;;;;5084920;28;20071;-72
2024/02/26 03:57:06;;;;;;;8.48;5.38;;;4.80;99.90;;;;;;5089297;28;20035;-72
2024/02/26 03:59:31;;;;;;;5.40;2.33;;;4.80;99.90;;;;;;5087328;28;20040;-72
2024/02/26 04:01:57;;;;;;;7.95;4.70;;;4.90;99.90;;;;;;5092878;28;20055;-72
2024/02/26 04:04:23;;;;;;;6.93;3.83;;;4.90;99.90;;;;;;5089003;28;20064;-72
2024/02/26 04:06:48;;;;;;;4.70;2.80;;;4.90;99.90;;;;;;5094030;28;20046;-72
2024/02/26 04:09:15;;;;;;;8.50;4.43;;;4.90;99.90;;;;;;5092202;28;20032;-72
2024/02/26 04:11:40;;;;;;;8.32;3.47;;;4.90;99.90;;;;;;5111932;28;20085;-73
2024/02/26 04:14:08;;;;;;;6.45;3.83;;;4.90;99.90;;;;;;5094659;28;20539;-73
2024/02/26 04:16:35;;;;;;;3.67;2.05;;;4.90;99.90;;;;;;5093215;28;20036;-72
2024/02/26 04:19:01;;;;;;;4.40;2.90;;;4.90;99.90;;;;;;5095417;28;20028;-73
2024/02/26 04:21:27;;;;;;;5.55;2.58;;;5.00;99.90;;;;;;5095858;28;20092;-73
2024/02/26 04:23:55;;;;;;;8.90;4.53;;;4.90;99.90;;;;;;5096715;28;20090;-72
2024/02/26 04:26:21;;;;;;;7.93;4.07;;;5.00;99.90;;;;;;5078963;28;20067;-73
2024/02/26 04:28:47;;;;;;;7.20;3.35;;;5.00;99.90;;;;;;5083499;28;20044;-72
2024/02/26 04:31:13;;;;;;;11.05;4.18;;;5.00;99.90;;;;;;5084261;28;20060;-72
2024/02/26 04:33:39;;;;;;;3.50;2.03;;;5.10;99.90;;;;;;5100170;28;20051;-74
2024/02/26 04:36:04;;;;;;;6.00;2.83;;;5.00;99.90;;;;;;5102579;28;20089;-74
2024/02/26 04:38:30;;;;;;;7.28;4.00;;;5.00;99.90;;;;;;5082699;28;20047;-74
2024/02/26 04:40:56;;;;;;;4.35;2.75;;;5.00;99.90;;;;;;5096548;28;20040;-73
2024/02/26 04:43:21;;;;;;;4.20;2.97;;;5.00;99.90;;;;;;5078999;28;20235;-74
2024/02/26 04:45:47;;;;;;;4.80;3.15;;;5.10;99.90;;;;;;5083398;28;20044;-73
2024/02/26 04:48:13;;;;;;;4.32;3.20;;;5.10;99.90;;;;;;5097951;28;20044;-73
2024/02/26 04:50:39;;;;;;;3.08;2.22;;;5.10;99.90;;;;;;5085863;28;20043;-74
2024/02/26 04:53:05;;;;;;;4.15;2.70;;;5.10;99.90;;;;;;5099429;28;20094;-74
2024/02/26 04:55:31;;;;;;;3.97;2.80;;;5.10;99.90;;;;;;5098979;28;20036;-74
2024/02/26 04:57:56;;;;;;;3.40;1.98;;;5.10;99.90;;;;;;5099790;28;20040;-73
2024/02/26 05:00:22;;;;;;;3.80;2.28;;;5.10;99.90;;;;;;5082755;28;20048;-74
2024/02/26 05:02:48;;;;;;;3.03;2.15;;;5.10;99.90;;;;;;5118094;28;20071;-74
2024/02/26 05:05:14;;;;;;;3.05;1.70;;;5.00;99.90;;;;;;5101362;28;20081;-73
2024/02/26 05:07:41;;;;;;;2.95;1.50;;;5.10;99.90;;;;;;5102701;28;20475;-74
2024/02/26 05:10:07;;;;;;;2.67;2.30;;;5.00;99.90;;;;;;5103691;28;20051;-74
2024/02/26 05:12:35;;;;;;;2.50;1.55;;;5.00;99.90;;;;;;5095398;28;20093;-74
2024/02/26 05:15:02;;;;;;;1.98;1.48;;;4.90;99.90;;;;;;5102087;28;20121;-74
2024/02/26 05:17:28;;;;;;;1.65;1.20;;;5.00;99.90;;;;;;5097879;28;20036;-72
2024/02/26 05:19:54;;;;;;;2.20;1.38;;;4.90;99.90;;;;;;5099333;28;20144;-74
2024/02/26 05:22:20;;;;;;;2.13;1.85;;;4.90;99.90;;;;;;5098479;28;20039;-73
2024/02/26 05:24:46;;;;;;;1.15;0.88;;;4.80;99.90;;;;;;5100824;28;20460;-73
2024/02/26 05:27:12;;;;;;;2.03;1.27;;;4.80;99.90;;;;;;5102491;28;20061;-74
2024/02/26 05:29:38;;;;;;;1.73;1.13;;;4.90;99.90;;;;;;5119558;28;20051;-74
2024/02/26 05:32:05;;;;;;;1.17;0.98;;;4.90;99.90;;;;;;5081584;28;20036;-73
2024/02/26 05:34:31;;;;;;;1.13;0.85;;;4.90;99.90;;;;;;5102225;28;20032;-73
2024/02/26 05:36:57;;;;;;;1.75;1.05;;;4.90;99.90;;;;;;5101500;28;20037;-72
2024/02/26 05:39:22;;;;;;;1.08;0.93;;;4.90;99.90;;;;;;5102407;28;20131;-73
2024/02/26 05:41:49;;;;;;;5.22;1.65;;;4.90;99.90;;;;;;5102920;28;20092;-73
2024/02/26 05:44:15;;;;;;;2.97;2.45;;;4.90;99.90;;;;;;5099269;28;20082;-74
2024/02/26 05:46:42;;;;;;;3.28;1.13;;;4.90;99.90;;;;;;5101987;28;20051;-74
2024/02/26 05:49:07;;;;;;;1.95;1.02;;;4.90;99.90;;;;;;5102477;28;20169;-74
2024/02/26 05:51:33;;;;;;;2.13;1.08;;;4.90;99.90;;;;;;5105066;28;20054;-73
2024/02/26 05:53:59;;;;;;;1.77;1.00;;;4.90;99.90;;;;;;5083927;28;20040;-74
2024/02/26 05:56:25;;;;;;;1.45;1.17;;;4.90;99.90;;;;;;5085518;28;20035;-74
2024/02/26 05:58:51;;;;;;;7.43;0.75;;;4.90;99.90;;;;;;5096492;28;20036;-74
2024/02/26 06:01:17;;;;;;;1.63;1.17;;;4.80;99.90;;;;;;5100057;28;20132;-73
2024/02/26 06:03:44;;;;;;;1.00;0.70;;;4.80;99.90;;;;;;5079273;28;20100;-73
2024/02/26 06:06:10;;;;;;;1.80;1.13;;;4.80;99.90;;;;;;5098833;28;20067;-74
2024/02/26 06:08:36;;;;;;;1.45;0.77;;;4.80;99.90;;;;;;5092683;28;20354;-72
2024/02/26 06:11:08;;;;;;;1.60;0.95;;;4.90;99.90;;;;;;5080319;28;20094;-73
2024/02/26 06:13:35;;;;;;;1.35;1.25;;;4.90;99.90;;;;;;5079415;28;20040;-73
2024/02/26 06:16:01;;;;;;;2.05;1.08;;;4.80;99.90;;;;;;5082157;28;20043;-74
2024/02/26 06:18:27;;;;;;;1.05;0.90;;;4.90;99.90;;;;;;5098598;28;20036;-73
2024/02/26 06:20:53;;;;;;;2.25;1.08;;;4.90;99.90;;;;;;5104302;28;20047;-74
2024/02/26 06:23:19;;;;;;;2.05;1.05;;;4.90;99.90;;;;;;5097383;28;20120;-72
2024/02/26 06:25:44;;;;;;;2.47;1.20;;;4.90;99.90;;;;;;5101053;28;20101;-73
2024/02/26 06:28:10;;;;;;;1.25;0.85;;;4.90;99.90;;;;;;5097572;28;20039;-74
2024/02/26 06:30:36;;;;;;;1.50;0.98;;;4.90;99.90;;;;;;5096452;28;20040;-72
2024/02/26 06:33:02;;;;;;;1.13;0.88;;;4.90;99.90;;;;;;5085787;28;20039;-74
2024/02/26 06:35:28;;;;;;;1.58;0.88;;;4.90;99.90;;;;;;5084345;28;20055;-74
2024/02/26 06:37:54;;;;;;;2.40;1.25;;;4.90;99.90;;;;;;5100793;28;20053;-74
2024/02/26 06:40:20;;;;;;;1.40;0.98;;;4.90;99.90;;;;;;5082843;28;20043;-73
2024/02/26 06:42:46;;;;;;;1.15;0.73;;;4.80;99.90;;;;;;5083395;28;20104;-74
2024/02/26 06:45:11;;;;;;;1.85;0.75;;;4.80;99.90;;;;;;5084692;28;20040;-74
2024/02/26 06:47:37;;;;;;;4.00;0.82;;;4.90;99.90;;;;;;5101076;28;20054;-74
2024/02/26 06:50:03;;;;;;;0.52;0.38;;;4.80;99.90;;;;;;5083423;28;20093;-72
2024/02/26 06:52:29;;;;;;;0.93;0.63;;;4.80;99.90;;;;;;5101525;28;20476;-74
2024/02/26 06:54:54;;;;;;;1.15;0.75;;;4.80;99.90;;;;;;5095785;28;20024;-73
2024/02/26 06:57:20;;;;;;;1.35;0.47;;;4.90;99.90;;;;;;5105843;28;20036;-73
2024/02/26 06:59:47;;;;;;;1.85;0.88;;;4.90;99.90;;;;;;5103641;28;20066;-73
2024/02/26 07:02:13;;;;;;;1.27;0.57;;;4.90;99.90;;;;;;5082823;28;20056;-74
2024/02/26 07:04:40;;;;;;;2.00;1.25;;;4.90;99.90;;;;;;5093989;28;20123;-72
2024/02/26 07:07:07;;;;;;;0.65;0.32;;;4.90;99.90;;;;;;5106694;28;20044;-73
2024/02/26 07:09:32;;;;;;;0.73;0.60;;;4.90;99.90;;;;;;5095827;28;20130;-72
2024/02/26 07:11:58;;;;;;;0.52;0.40;;;4.90;99.90;;;;;;5112029;28;20503;-73
2024/02/26 07:14:24;;;;;;;2.08;0.73;;;4.90;99.90;;;;;;5101050;28;20048;-74
2024/02/26 07:16:50;;;;;;;1.23;0.68;;;4.90;99.90;;;;;;5101144;28;20036;-74
2024/02/26 07:19:16;;;;;;;2.85;1.00;;;4.90;99.90;;;;;;5104893;28;20075;-73
2024/02/26 07:21:42;;;;;;;1.25;0.77;;;5.00;99.90;;;;;;5098150;28;20131;-73
2024/02/26 07:24:08;;;;;;;0.98;0.52;;;5.00;99.90;;;;;;5096986;28;20052;-73
2024/02/26 07:26:34;;;;;;;0.65;0.52;;;4.90;99.90;;;;;;5085394;28;20048;-74
2024/02/26 07:29:01;;;;;;;1.33;0.55;;;4.90;99.90;;;;;;5099882;28;20083;-73
2024/02/26 07:31:26;;;;;;;0.98;0.50;;;5.00;99.90;;;;;;5084558;28;20097;-73
2024/02/26 07:33:52;;;;;;;0.57;0.35;;;5.10;99.90;;;;;;5104095;28;20040;-73
2024/02/26 07:36:18;;;;;;;0.60;0.43;;;5.00;99.90;;;;;;5100995;28;20091;-73
2024/02/26 07:38:43;;;;;;;0.88;0.60;;;5.00;99.90;;;;;;5098345;28;20057;-72
2024/02/26 07:41:09;;;;;;;0.80;0.73;;;5.00;99.90;;;;;;5101264;28;20069;-73
2024/02/26 07:43:35;;;;;;;0.43;0.40;;;5.00;99.90;;;;;;5102202;28;20454;-72
2024/02/26 07:46:01;;;;;;;1.27;1.05;;;5.10;99.90;;;;;;5097837;28;20031;-73
2024/02/26 07:48:26;;;;;;;1.10;0.50;;;5.10;99.90;;;;;;5098914;28;20035;-72
2024/02/26 07:50:52;;;;;;;0.68;0.60;;;5.10;99.90;;;;;;5084051;28;20086;-74
2024/02/26 07:53:18;;;;;;;1.05;0.68;;;5.20;99.90;;;;;;5116203;28;20063;-70
2024/02/26 07:55:44;;;;;;;0.50;0.38;;;5.20;99.90;;;;;;5097344;28;20036;-73
2024/02/26 07:58:09;;;;;;;0.52;0.40;;;5.20;99.90;;;;;;5098566;28;20253;-73
2024/02/26 08:00:35;;;;;;;1.05;0.50;;;5.20;99.90;;;;;;5121535;28;20075;-72
2024/02/26 08:03:01;;;;;;;2.33;1.30;;;5.20;99.90;;;;;;5097612;28;20078;-72
2024/02/26 08:05:26;;;;;;;0.38;0.30;;;5.20;99.90;;;;;;5079106;28;20040;-71
2024/02/26 08:07:52;;;;;;;0.63;0.50;;;5.20;99.90;;;;;;5089687;28;20066;-73
2024/02/26 08:10:18;;;;;;;1.17;0.80;;;5.20;99.90;;;;;;5089506;28;20040;-72
2024/02/26 08:12:45;;;;;;;0.95;0.90;;;5.20;99.90;;;;;;5080565;28;20525;-72
2024/02/26 08:15:11;;;;;;;2.95;0.73;;;5.20;99.90;;;;;;5080759;28;20051;-73
2024/02/26 08:17:37;;;;;;;1.35;0.88;;;5.30;99.90;;;;;;5095506;28;20066;-72
2024/02/26 08:20:03;;;;;;;1.17;0.73;;;5.30;99.90;;;;;;5075991;28;20036;-73
2024/02/26 08:22:29;;;;;;;2.08;0.43;;;5.30;99.90;;;;;;5098284;28;20120;-72
2024/02/26 08:24:55;;;;;;;0.70;0.52;;;5.30;99.90;;;;;;5094230;28;20122;-72
2024/02/26 08:27:20;;;;;;;0.52;0.47;;;5.30;99.90;;;;;;5098919;28;20040;-72
2024/02/26 08:29:46;;;;;;;0.88;0.63;;;5.30;99.90;;;;;;5097089;28;20043;-73
2024/02/26 08:32:12;;;;;;;0.40;0.40;;;5.30;99.90;;;;;;5098055;28;20070;-73
2024/02/26 08:34:37;;;;;;;1.40;0.93;;;5.30;99.90;;;;;;5095924;28;20044;-74
2024/02/26 08:37:03;;;;;;;1.25;0.70;;;5.40;99.90;;;;;;5119126;28;20036;-72
2024/02/26 08:39:29;;;;;;;0.57;0.50;;;5.40;99.90;;;;;;5100239;28;20032;-73
2024/02/26 08:41:55;;;;;;;0.65;0.47;;;5.40;99.90;;;;;;5098503;28;20139;-73
2024/02/26 08:44:20;;;;;;;1.92;0.93;;;5.50;99.90;;;;;;5094873;28;20137;-73
2024/02/26 08:46:46;;;;;;;0.82;0.63;;;5.40;99.90;;;;;;5101374;28;20046;-73
2024/02/26 08:49:12;;;;;;;1.27;0.63;;;5.50;99.90;;;;;;5081241;28;20043;-74
2024/02/26 08:51:44;;;;;;;1.40;0.80;;;5.50;99.90;;;;;;5088934;28;20052;-74
2024/02/26 08:54:10;;;;;;;1.38;0.52;;;5.50;99.90;;;;;;5097857;28;20347;-74
2024/02/26 08:56:36;;;;;;;1.23;0.52;;;5.50;99.90;;;;;;5081780;28;20036;-74
2024/02/26 08:59:03;;;;;;;1.38;0.85;;;5.60;99.90;;;;;;5103427;28;20144;-73
2024/02/26 09:01:31;;;;;;;1.75;0.70;;;5.60;99.90;;;;;;5103921;28;20124;-74
2024/02/26 09:03:56;;;;;;;0.40;0.40;;;5.60;99.90;;;;;;5103516;28;20059;-74
2024/02/26 09:06:23;;;;;;;1.13;0.77;;;5.60;99.90;;;;;;5104876;28;20075;-74
2024/02/26 09:08:48;;;;;;;1.02;0.75;;;5.60;99.90;;;;;;5102068;28;20023;-73
2024/02/26 09:11:14;;;;;;;1.00;0.63;;;5.60;99.90;;;;;;5084648;28;20092;-73
2024/02/26 09:13:40;;;;;;;2.30;0.65;;;5.70;99.90;;;;;;5103422;28;20044;-74
2024/02/26 09:16:06;;;;;;;1.33;0.63;;;5.70;99.90;;;;;;5082407;28;20032;-74
2024/02/26 09:18:31;;;;;;;3.80;0.45;;;5.70;99.90;;;;;;5102112;28;20047;-74
2024/02/26 09:20:57;;;;;;;2.38;1.15;;;5.70;99.90;;;;;;5099643;28;20040;-73
2024/02/26 09:23:23;;;;;;;1.30;0.85;;;5.70;99.90;;;;;;5103815;28;20032;-72
2024/02/26 09:25:49;;;;;;;1.33;0.50;;;5.70;99.90;;;;;;5103886;28;20047;-74
2024/02/26 09:28:17;;;;;;;1.73;0.80;;;5.80;99.90;;;;;;5102108;28;20032;-74
2024/02/26 09:30:43;;;;;;;2.50;0.95;;;5.70;99.90;;;;;;5084249;28;20040;-73
2024/02/26 09:33:09;;;;;;;0.85;0.70;;;5.80;99.90;;;;;;5099994;28;20040;-73
2024/02/26 09:35:35;;;;;;;1.75;1.00;;;5.80;99.90;;;;;;5079304;28;20035;-73
2024/02/26 09:38:01;;;;;;;1.05;0.30;;;5.80;99.90;;;;;;5080540;28;20032;-74
2024/02/26 09:40:27;;;;;;;0.52;0.38;;;5.80;99.90;;;;;;5101845;28;20036;-73
2024/02/26 09:42:59;;;;;;;1.25;0.93;;;5.80;99.90;;;;;;5099932;28;20047;-73
2024/02/26 09:45:27;;;;;;;4.68;0.80;;;5.80;99.90;;;;;;5098360;28;20032;-73
2024/02/26 09:47:55;;;;;;;1.35;1.08;;;5.80;99.90;;;;;;5105316;28;20051;-72
2024/02/26 09:50:22;;;;;;;1.73;0.60;;;5.90;99.90;;;;;;5109354;28;20036;-72
2024/02/26 09:52:49;;;;;;;0.77;0.60;;;5.80;99.90;;;;;;5097036;28;20060;-71
2024/02/26 09:55:15;;;;;;;0.30;0.28;;;5.90;99.90;;;;;;5081109;28;20039;-70
2024/02/26 09:57:46;;;;;;;1.73;1.17;;;5.90;99.90;;;;;;5113552;28;20119;-71
2024/02/26 10:00:19;;;;;;;1.15;0.88;;;5.90;99.90;;;;;;5100468;28;20493;-73
2024/02/26 10:02:47;;;;;;;0.98;0.68;;;5.90;99.90;;;;;;5104053;28;20270;-73
2024/02/26 10:05:17;;;;;;;1.08;0.88;;;5.90;99.90;;;;;;5100246;28;20092;-73
2024/02/26 10:07:44;;;;;;;0.85;0.52;;;6.00;99.90;;;;;;5115892;28;20048;-73
2024/02/26 10:10:10;;;;;;;1.98;1.20;;;5.90;99.90;;;;;;5085765;28;20123;-73
2024/02/26 10:12:36;;;;;;;1.42;0.90;;;6.10;99.90;;;;;;5101204;28;20549;-73
2024/02/26 10:15:01;;;;;;;1.27;0.82;;;6.10;99.90;;;;;;5120224;28;20036;-72
2024/02/26 10:17:28;;;;;;;1.02;0.65;;;6.00;99.90;;;;;;5100253;28;20048;-71
2024/02/26 10:19:56;;;;;;;0.85;0.77;;;6.10;99.90;;;;;;5103029;28;20040;-73
2024/02/26 10:22:22;;;;;;;5.32;1.38;;;6.10;99.90;;;;;;5093242;28;20047;-72
2024/02/26 10:24:48;;;;;;;2.05;1.02;;;6.10;99.90;;;;;;5101854;28;20070;-71
2024/02/26 10:27:15;;;;;;;0.80;0.63;;;6.10;99.90;;;;;;5102430;28;20034;-73
2024/02/26 10:29:42;;;;;;;0.75;0.60;;;6.10;99.90;;;;;;5100931;28;20040;-74
2024/02/26 10:32:09;;;;;;;1.38;0.98;;;6.20;99.90;;;;;;5103543;28;20044;-71
2024/02/26 10:34:37;;;;;;;0.82;0.50;;;6.10;99.90;;;;;;5098839;28;20031;-73
2024/02/26 10:37:04;;;;;;;2.67;0.70;;;6.20;99.90;;;;;;5099941;28;20463;-73
2024/02/26 10:39:30;;;;;;;1.65;1.02;;;6.20;99.90;;;;;;5103107;28;20058;-73
2024/02/26 10:41:56;;;;;;;2.45;1.05;;;6.20;99.90;;;;;;5104799;28;20036;-73
2024/02/26 10:44:21;;;;;;;1.95;1.08;;;6.20;99.90;;;;;;5116380;28;20103;-72
2024/02/26 10:46:51;;;;;;;1.20;1.00;;;6.30;99.90;;;;;;5098032;28;20384;-73
2024/02/26 10:49:18;;;;;;;2.38;1.67;;;6.30;99.90;;;;;;5100898;28;20103;-72
2024/02/26 10:51:46;;;;;;;2.05;1.13;;;6.30;99.90;;;;;;5093111;28;20087;-74
2024/02/26 10:54:16;;;;;;;0.90;0.63;;;6.40;99.90;;;;;;5116057;28;20067;-73
2024/02/26 10:56:43;;;;;;;3.22;1.45;;;6.50;99.90;;;;;;5101799;28;20048;-72
2024/02/26 10:59:12;;;;;;;1.30;1.00;;;6.60;99.90;;;;;;5097106;28;20100;-71
2024/02/26 11:01:41;;;;;;;2.05;0.95;;;6.60;99.90;;;;;;5083315;28;20138;-72
2024/02/26 11:04:08;;;;;;;1.38;0.93;;;6.70;99.90;;;;;;5094443;28;20078;-73
2024/02/26 11:06:34;;;;;;;1.33;0.82;;;6.70;99.90;;;;;;5084318;28;20043;-73
2024/02/26 11:09:02;;;;;;;1.73;1.27;;;6.80;99.90;;;;;;5100784;28;20089;-72
2024/02/26 11:11:30;;;;;;;1.35;0.73;;;6.90;99.90;;;;;;5098938;28;20135;-72
2024/02/26 11:13:56;;;;;;;1.75;1.13;;;6.90;99.90;;;;;;5113586;28;20044;-72
2024/02/26 11:16:22;;;;;;;2.63;1.17;;;6.90;99.90;;;;;;5098542;28;20064;-73
2024/02/26 11:18:49;;;;;;;2.42;1.50;;;6.90;99.90;;;;;;5084523;28;20036;-71
2024/02/26 11:21:19;;;;;;;2.55;1.40;;;6.90;99.90;;;;;;5101803;28;20032;-73
2024/02/26 11:23:48;;;;;;;1.60;1.20;;;6.90;99.90;;;;;;5098114;28;20044;-73
2024/02/26 11:26:16;;;;;;;2.28;1.67;;;6.90;99.90;;;;;;5103921;28;20044;-75
2024/02/26 11:28:44;;;;;;;2.00;0.80;;;6.90;99.90;;;;;;5100776;28;20399;-73
2024/02/26 11:31:10;;;;;;;1.17;0.63;;;6.90;99.90;;;;;;5088572;28;20055;-74
2024/02/26 11:33:36;;;;;;;1.00;0.80;;;6.90;99.90;;;;;;5086876;28;20044;-73
2024/02/26 11:36:12;;;;;;;0.90;0.50;;;6.90;99.90;;;;;;5101076;28;20043;-72
2024/02/26 11:38:38;;;;;;;0.43;0.20;;;6.90;99.90;;;;;;5102509;28;20086;-72
2024/02/26 11:41:07;;;;;;;0.52;0.25;;;6.90;99.90;;;;;;5102959;28;20091;-75
2024/02/26 11:43:57;;;;;;;1.27;0.68;;;6.90;99.90;;;;;;5085569;28;20042;-74
2024/02/26 11:46:28;;;;;;;1.77;0.68;;;7.00;99.90;;;;;;5083100;28;20036;-68
2024/02/26 11:49:00;;;;;;;1.45;0.80;;;6.90;99.90;;;;;;5069276;28;20040;-68
2024/02/26 11:51:27;;;;;;;0.50;0.30;;;7.00;99.90;;;;;;5066382;28;20059;-70
2024/02/26 11:53:54;;;;;;;0.60;0.50;;;7.00;99.90;;;;;;5086951;28;20530;-70
2024/02/26 11:56:26;;;;;;;1.40;0.73;;;7.00;99.90;;;;;;5087442;28;20089;-69
2024/02/26 11:59:09;;;;;;;0.73;0.60;;;7.00;99.90;;;;;;5087385;28;20450;-69
2024/02/26 12:01:39;;;;;;;0.80;0.57;;;7.10;99.90;;;;;;5082861;28;20137;-69
2024/02/26 12:04:16;;;;;;;0.82;0.50;;;7.00;99.90;;;;;;5084379;28;20051;-72
2024/02/26 12:06:54;;;;;;;1.08;0.35;;;7.00;99.90;;;;;;5099615;28;20054;-69
2024/02/26 12:09:37;;;;;;;1.90;0.85;;;6.90;99.90;;;;;;5068013;28;20036;-69
2024/02/26 12:12:04;;;;;;;0.85;0.45;;;6.90;99.90;;;;;;5087475;28;20047;-68
2024/02/26 12:14:33;;;;;;;0.43;0.10;;;6.90;99.90;;;;;;5074746;28;20607;-69
2024/02/26 12:16:59;;;;;;;0.93;0.57;;;6.90;99.90;;;;;;5064955;28;20040;-69
2024/02/26 12:19:27;;;;;;;0.40;0.30;;;6.90;99.90;;;;;;5089359;28;20035;-69
2024/02/26 12:21:55;;;;;;;1.25;0.50;;;6.90;99.90;;;;;;5085432;28;20040;-68
2024/02/26 12:24:21;;;;;;;2.15;1.15;;;6.90;99.90;;;;;;5090708;28;20137;-68
2024/02/26 12:26:47;;;;;;;0.35;0.20;;;6.90;99.90;;;;;;5070501;28;20036;-68
2024/02/26 12:29:14;;;;;;;3.22;0.68;;;7.00;99.90;;;;;;5090714;28;20472;-69
2024/02/26 12:31:40;;;;;;;1.52;1.05;;;6.90;99.90;;;;;;5072294;28;20043;-69
2024/02/26 12:34:07;;;;;;;0.80;0.57;;;6.90;99.90;;;;;;5089755;28;20044;-69
2024/02/26 12:36:34;;;;;;;4.43;0.65;;;6.90;99.90;;;;;;5088741;28;20042;-67
2024/02/26 12:39:02;;;;;;;1.35;0.95;;;6.90;99.90;;;;;;5087353;28;20046;-68
2024/02/26 12:41:30;;;;;;;4.85;0.65;;;6.90;99.90;;;;;;5087456;28;20075;-68
2024/02/26 12:43:58;;;;;;;1.73;0.70;;;6.90;99.90;;;;;;5088817;28;20136;-68
2024/02/26 12:46:24;;;;;;;1.13;0.65;;;6.90;99.90;;;;;;5089718;28;20118;-68
2024/02/26 12:48:49;;;;;;;1.25;0.38;;;6.90;99.90;;;;;;5091493;28;20118;-70
2024/02/26 12:51:17;;;;;;;1.60;1.00;;;6.90;99.90;;;;;;5089716;28;20056;-68
2024/02/26 12:53:45;;;;;;;0.73;0.55;;;6.90;99.90;;;;;;5088975;28;20150;-68